Time;durP1;ratioP1;P1;durP2;ratioP2;P2;SDS_P1;SDS_P2;PMS_P1;PMS_P2;Temp;Humidity;BMP_temperature;BMP_pressure;BME280_temperature;BME280_humidity;BME280_pressure;Samples;Min_cycle;Max_cycle;Signal;HPM_P1;HPM_P2
2022/11/05 00:09:28;;;;;;;3.47;3.17;;;15.70;65.00;;;;;;5083993;28;20055;-70
2022/11/05 00:16:42;;;;;;;3.53;3.20;;;15.70;65.10;;;;;;5084001;28;20024;-70
2022/11/05 00:16:53;;;;;;;3.65;2.85;;;15.70;65.10;;;;;;5083854;28;20024;-70
2022/11/05 00:19:18;;;;;;;2.90;2.50;;;15.70;65.10;;;;;;5083853;28;20012;-70
2022/11/05 00:27:13;;;;;;;3.03;2.72;;;15.60;65.10;;;;;;5083785;28;20130;-70
2022/11/05 00:29:38;;;;;;;3.20;2.85;;;15.70;65.10;;;;;;5083542;28;20141;-70
2022/11/05 00:32:04;;;;;;;4.35;3.28;;;15.70;65.10;;;;;;5083687;28;20324;-70
2022/11/05 00:34:30;;;;;;;2.90;2.58;;;15.70;65.10;;;;;;5083642;28;20013;-70
2022/11/05 00:36:56;;;;;;;3.08;2.67;;;15.70;65.10;;;;;;5083530;28;20029;-70
2022/11/05 00:39:21;;;;;;;3.78;2.78;;;15.60;65.00;;;;;;5083595;28;20171;-70
2022/11/05 00:44:58;;;;;;;3.47;2.63;;;15.70;65.00;;;;;;5083559;28;20066;-70
2022/11/05 00:50:01;;;;;;;3.33;2.70;;;15.70;65.00;;;;;;5083535;28;20024;-70
2022/11/05 00:55:11;;;;;;;2.88;2.55;;;15.60;65.00;;;;;;5083384;28;20083;-70
2022/11/05 00:57:36;;;;;;;4.03;3.08;;;15.70;65.10;;;;;;5083408;28;20039;-70
2022/11/05 01:00:02;;;;;;;2.72;2.53;;;15.60;65.10;;;;;;5085016;28;20020;-70
2022/11/05 01:02:28;;;;;;;2.90;2.60;;;15.70;65.10;;;;;;5087512;28;20062;-70
2022/11/05 01:04:54;;;;;;;3.40;2.83;;;15.60;65.00;;;;;;5087502;28;20023;-70
2022/11/05 01:07:20;;;;;;;2.95;2.50;;;15.60;65.00;;;;;;5087431;28;20024;-70
2022/11/05 01:09:46;;;;;;;4.05;2.75;;;15.70;65.10;;;;;;5087383;28;20016;-70
2022/11/05 01:12:12;;;;;;;3.40;2.65;;;15.60;65.10;;;;;;5087372;28;20016;-70
2022/11/05 01:14:37;;;;;;;3.03;2.72;;;15.60;65.00;;;;;;5087322;28;20024;-70
2022/11/05 01:17:03;;;;;;;3.22;2.58;;;15.60;65.00;;;;;;5087195;28;20069;-70
2022/11/05 01:19:29;;;;;;;3.50;2.80;;;15.60;65.00;;;;;;5087243;28;20016;-69
2022/11/05 01:21:55;;;;;;;3.03;2.60;;;15.60;65.00;;;;;;5087143;28;20024;-70
2022/11/05 01:24:20;;;;;;;2.78;2.30;;;15.60;65.00;;;;;;5087094;28;20084;-71
2022/11/05 01:26:46;;;;;;;4.05;2.80;;;15.60;65.00;;;;;;5087079;28;20381;-70
2022/11/05 01:29:12;;;;;;;3.47;2.80;;;15.60;65.00;;;;;;5086894;28;20111;-69
2022/11/05 01:31:38;;;;;;;3.25;2.70;;;15.60;65.10;;;;;;5086961;28;20070;-70
2022/11/05 01:34:03;;;;;;;3.15;2.85;;;15.60;65.00;;;;;;5086933;28;20020;-70
2022/11/05 01:36:29;;;;;;;3.10;2.33;;;15.60;65.10;;;;;;5085672;28;20031;-70
2022/11/05 01:38:55;;;;;;;3.10;2.75;;;15.60;65.00;;;;;;5086810;28;20020;-69
2022/11/05 01:41:21;;;;;;;3.03;2.63;;;15.60;65.00;;;;;;5086734;28;20028;-69
2022/11/05 01:43:53;;;;;;;2.88;2.47;;;15.60;65.10;;;;;;5086745;28;20328;-69
2022/11/05 01:46:28;;;;;;;3.03;2.60;;;15.60;65.10;;;;;;5086699;28;20342;-70
2022/11/05 01:48:59;;;;;;;3.25;2.60;;;15.60;65.10;;;;;;5086663;28;20020;-70
2022/11/05 01:51:27;;;;;;;3.28;2.83;;;15.60;65.10;;;;;;5086662;28;20320;-70
2022/11/05 01:54:01;;;;;;;3.17;2.65;;;15.60;65.00;;;;;;5086532;28;20024;-69
2022/11/05 01:56:38;;;;;;;2.50;2.30;;;15.60;65.00;;;;;;5086448;28;20075;-70
2022/11/05 01:59:25;;;;;;;2.65;2.40;;;15.60;65.00;;;;;;5085343;28;20036;-70
2022/11/05 02:01:52;;;;;;;3.25;2.63;;;15.60;64.90;;;;;;5086468;28;20021;-69
2022/11/05 02:04:28;;;;;;;3.35;2.53;;;15.60;65.00;;;;;;5086401;28;20009;-70
2022/11/05 02:06:54;;;;;;;2.63;2.33;;;15.60;65.10;;;;;;5086363;28;20016;-70
2022/11/05 02:09:32;;;;;;;3.05;2.58;;;15.60;65.60;;;;;;5086275;28;20024;-70
2022/11/05 02:11:58;;;;;;;2.88;2.55;;;15.60;65.10;;;;;;5086022;28;20070;-70
2022/11/05 02:14:23;;;;;;;3.13;2.65;;;15.60;65.10;;;;;;5086190;28;20087;-70
2022/11/05 02:17:04;;;;;;;2.78;2.40;;;15.60;65.10;;;;;;5086082;28;20035;-70
2022/11/05 02:20:11;;;;;;;3.58;2.45;;;15.60;65.10;;;;;;5086162;28;20016;-70
2022/11/05 02:22:52;;;;;;;3.80;3.22;;;15.60;65.10;;;;;;5053454;28;20087;-70
2022/11/05 02:25:58;;;;;;;2.60;2.40;;;15.60;65.10;;;;;;5085995;28;20208;-70
2022/11/05 02:28:44;;;;;;;2.80;2.38;;;15.60;65.10;;;;;;5084684;28;20208;-69
2022/11/05 02:31:29;;;;;;;3.50;3.20;;;15.60;65.10;;;;;;5085901;28;20047;-70
2022/11/05 02:34:12;;;;;;;3.17;2.75;;;15.60;65.10;;;;;;5085808;28;20021;-70
2022/11/05 02:36:52;;;;;;;3.30;2.67;;;15.60;65.10;;;;;;5085777;28;20051;-69
2022/11/05 02:39:27;;;;;;;3.20;2.42;;;15.60;65.10;;;;;;5085764;28;20017;-69
2022/11/05 02:42:10;;;;;;;3.22;2.53;;;15.50;65.20;;;;;;5085655;28;20374;-70
2022/11/05 02:45:06;;;;;;;2.88;2.50;;;15.50;65.10;;;;;;5085647;28;20024;-69
2022/11/05 02:47:43;;;;;;;2.58;2.38;;;15.50;65.10;;;;;;5085618;28;20147;-69
2022/11/05 02:50:38;;;;;;;3.05;2.65;;;15.50;65.10;;;;;;5084411;28;20182;-70
2022/11/05 02:53:10;;;;;;;4.05;2.90;;;15.50;65.10;;;;;;5085456;28;20024;-70
2022/11/05 02:55:40;;;;;;;3.08;2.72;;;15.50;65.10;;;;;;5085349;28;20017;-70
2022/11/05 02:58:07;;;;;;;4.00;2.97;;;15.50;65.10;;;;;;5085428;28;20012;-70
2022/11/05 03:00:53;;;;;;;2.80;2.60;;;15.50;65.10;;;;;;5085308;28;20048;-70
2022/11/05 03:03:28;;;;;;;4.07;2.88;;;15.50;65.10;;;;;;5085284;28;20035;-70
2022/11/05 03:06:32;;;;;;;2.92;2.55;;;15.50;65.10;;;;;;5084100;28;20208;-70
2022/11/05 03:09:19;;;;;;;3.03;2.38;;;15.50;65.10;;;;;;5085243;28;20020;-70
2022/11/05 03:12:06;;;;;;;3.28;2.85;;;15.50;65.10;;;;;;5085088;28;20334;-70
2022/11/05 03:14:38;;;;;;;3.08;2.28;;;15.50;65.20;;;;;;5085066;28;20029;-70
2022/11/05 03:17:16;;;;;;;3.20;2.72;;;15.50;65.20;;;;;;5084929;28;20069;-70
2022/11/05 03:20:14;;;;;;;3.10;2.80;;;15.50;65.20;;;;;;5084989;28;20027;-70
2022/11/05 03:22:57;;;;;;;2.75;2.20;;;15.50;65.20;;;;;;5084267;28;20020;-70
2022/11/05 03:25:27;;;;;;;2.92;2.42;;;15.50;65.20;;;;;;5084856;28;20020;-70
2022/11/05 03:27:57;;;;;;;2.97;2.67;;;15.50;65.20;;;;;;5084821;28;20020;-70
2022/11/05 03:30:24;;;;;;;2.75;2.38;;;15.50;65.10;;;;;;5084662;28;20045;-70
2022/11/05 03:32:58;;;;;;;3.35;2.42;;;15.50;65.10;;;;;;5084692;28;20062;-70
2022/11/05 03:35:29;;;;;;;3.15;2.45;;;15.50;65.20;;;;;;5084590;28;20024;-70
2022/11/05 03:38:01;;;;;;;3.30;2.45;;;15.50;65.10;;;;;;5084557;28;20066;-70
2022/11/05 03:40:31;;;;;;;2.95;2.30;;;15.50;65.10;;;;;;5084586;28;20013;-70
2022/11/05 03:42:59;;;;;;;3.05;2.75;;;15.50;65.10;;;;;;5084476;28;20016;-70
2022/11/05 03:45:34;;;;;;;2.60;2.23;;;15.50;65.10;;;;;;5084410;28;20044;-70
2022/11/05 03:48:02;;;;;;;3.53;2.22;;;15.50;65.10;;;;;;5084460;28;20009;-71
2022/11/05 03:50:40;;;;;;;3.60;3.00;;;15.50;65.10;;;;;;5084366;28;20020;-69
2022/11/05 03:53:19;;;;;;;2.40;2.20;;;15.50;65.10;;;;;;5084311;28;20021;-70
2022/11/05 03:56:13;;;;;;;2.53;2.33;;;15.50;65.10;;;;;;5084226;28;20024;-70
2022/11/05 03:58:43;;;;;;;2.45;2.25;;;15.50;65.10;;;;;;5084279;28;20020;-70
2022/11/05 04:01:11;;;;;;;2.83;2.30;;;15.50;65.10;;;;;;5084185;28;20054;-70
2022/11/05 04:03:37;;;;;;;2.97;2.50;;;15.50;65.20;;;;;;5084069;28;20239;-70
2022/11/05 04:14:17;;;;;;;3.63;2.58;;;15.50;65.20;;;;;;5083964;28;20303;-70
2022/11/05 04:24:55;;;;;;;2.58;2.38;;;15.50;65.20;;;;;;5083814;28;20131;-70
2022/11/05 04:27:24;;;;;;;3.13;2.55;;;15.50;65.20;;;;;;5083758;28;20312;-69
2022/11/05 04:32:34;;;;;;;2.35;2.15;;;15.50;65.20;;;;;;5083709;28;20077;-70
2022/11/05 04:35:00;;;;;;;2.55;2.15;;;15.50;65.30;;;;;;5083649;28;20017;-70
2022/11/05 04:37:26;;;;;;;3.17;2.47;;;15.40;65.10;;;;;;5083544;28;20026;-70
2022/11/05 04:39:51;;;;;;;3.47;2.33;;;15.50;65.20;;;;;;5083632;28;20201;-70
2022/11/05 04:42:17;;;;;;;3.08;2.47;;;15.50;65.20;;;;;;5083558;28;20023;-69
2022/11/05 04:44:43;;;;;;;3.22;2.30;;;15.50;65.20;;;;;;5083562;28;20058;-69
2022/11/05 04:47:09;;;;;;;3.42;2.65;;;15.50;65.20;;;;;;5083548;28;20032;-71
2022/11/05 04:49:35;;;;;;;2.50;2.25;;;15.50;65.20;;;;;;5083462;28;20020;-71
2022/11/05 04:52:00;;;;;;;2.53;2.33;;;15.50;65.20;;;;;;5083493;28;20032;-71
2022/11/05 04:54:26;;;;;;;2.35;2.10;;;15.50;65.10;;;;;;5083466;28;20016;-70
2022/11/05 04:56:52;;;;;;;3.97;2.55;;;15.50;65.20;;;;;;5083360;28;20312;-70
2022/11/05 04:59:18;;;;;;;2.40;2.20;;;15.50;65.20;;;;;;5083443;28;20017;-70
2022/11/05 05:01:51;;;;;;;2.05;1.90;;;15.50;65.20;;;;;;5083393;28;20075;-70
2022/11/05 05:04:17;;;;;;;2.55;2.28;;;15.50;65.20;;;;;;5083363;28;20047;-70
2022/11/05 05:06:43;;;;;;;3.35;2.60;;;15.50;65.20;;;;;;5083350;28;20020;-70
2022/11/05 05:09:09;;;;;;;2.53;2.30;;;15.50;65.20;;;;;;5083273;28;20090;-70
2022/11/05 05:11:34;;;;;;;2.88;2.53;;;15.40;65.20;;;;;;5083272;28;20016;-70
2022/11/05 05:14:00;;;;;;;2.40;2.20;;;15.40;65.20;;;;;;5083242;28;20024;-71
2022/11/05 05:16:26;;;;;;;2.60;2.33;;;15.40;65.20;;;;;;5083211;28;20308;-71
2022/11/05 05:18:53;;;;;;;2.70;2.35;;;15.50;65.20;;;;;;5083195;28;20021;-71
2022/11/05 05:21:39;;;;;;;3.05;2.65;;;15.40;65.20;;;;;;5083216;28;20016;-71
2022/11/05 05:24:17;;;;;;;2.97;2.05;;;15.40;65.20;;;;;;5083158;28;20013;-71
2022/11/05 05:26:48;;;;;;;2.40;2.20;;;15.40;65.20;;;;;;5083167;28;20123;-71
2022/11/05 05:29:15;;;;;;;2.58;2.08;;;15.40;65.20;;;;;;5082958;28;20044;-71
2022/11/05 05:31:41;;;;;;;2.80;2.53;;;15.50;65.20;;;;;;5083132;28;20027;-71
2022/11/05 05:34:09;;;;;;;2.53;2.15;;;15.40;65.10;;;;;;5083069;28;20047;-70
2022/11/05 05:36:35;;;;;;;2.72;2.42;;;15.40;65.10;;;;;;5082983;28;20035;-70
2022/11/05 05:39:03;;;;;;;2.40;2.20;;;15.40;65.10;;;;;;5083006;28;20020;-69
2022/11/05 05:41:29;;;;;;;2.67;2.47;;;15.40;65.10;;;;;;5083004;28;20213;-69
2022/11/05 05:43:55;;;;;;;2.50;2.30;;;15.40;65.10;;;;;;5082973;28;20021;-70
2022/11/05 05:46:21;;;;;;;2.55;2.30;;;15.40;65.20;;;;;;5084877;28;20055;-70
2022/11/05 05:48:51;;;;;;;1.95;1.85;;;15.40;65.10;;;;;;5086687;28;20020;-70
2022/11/05 05:51:18;;;;;;;2.33;2.10;;;15.40;65.10;;;;;;5086618;28;20031;-70
2022/11/05 05:53:44;;;;;;;2.30;2.10;;;15.50;65.20;;;;;;5086624;28;20311;-70
2022/11/05 05:56:13;;;;;;;2.50;2.20;;;15.50;65.10;;;;;;5086484;28;20323;-70
2022/11/05 05:58:39;;;;;;;3.38;2.22;;;15.40;65.10;;;;;;5086502;28;20013;-70
2022/11/05 06:01:12;;;;;;;2.58;2.30;;;15.40;65.10;;;;;;5086433;28;20036;-70
2022/11/05 06:03:38;;;;;;;2.60;2.40;;;15.40;65.10;;;;;;5086427;28;20089;-70
2022/11/05 06:06:09;;;;;;;2.05;1.88;;;15.40;65.10;;;;;;5086390;28;20020;-70
2022/11/05 06:08:36;;;;;;;2.35;2.15;;;15.40;65.10;;;;;;5086336;28;20066;-70
2022/11/05 06:11:03;;;;;;;2.22;2.03;;;15.40;65.20;;;;;;5085144;28;20335;-70
2022/11/05 06:13:29;;;;;;;3.33;2.38;;;15.40;65.20;;;;;;5086245;28;20051;-70
2022/11/05 06:16:06;;;;;;;3.05;2.55;;;15.40;65.10;;;;;;5086102;28;20028;-70
2022/11/05 06:18:33;;;;;;;2.30;2.10;;;15.40;65.20;;;;;;5086210;28;20013;-69
2022/11/05 06:21:14;;;;;;;2.67;2.47;;;15.40;65.20;;;;;;5086135;28;20119;-70
2022/11/05 06:23:42;;;;;;;3.20;2.60;;;15.40;65.10;;;;;;5086126;28;20308;-70
2022/11/05 06:26:11;;;;;;;2.58;2.30;;;15.40;65.20;;;;;;5086049;28;20230;-70
2022/11/05 06:28:37;;;;;;;2.20;2.00;;;15.40;65.10;;;;;;5085981;28;20083;-70
2022/11/05 06:31:03;;;;;;;2.53;2.28;;;15.40;65.10;;;;;;5085789;28;20049;-70
2022/11/05 06:33:29;;;;;;;2.35;2.03;;;15.40;65.10;;;;;;5085888;28;20081;-70
2022/11/05 06:35:58;;;;;;;2.53;2.33;;;15.40;65.10;;;;;;5085726;28;20021;-70
2022/11/05 06:38:24;;;;;;;2.17;1.95;;;15.40;65.10;;;;;;5085793;28;20069;-70
2022/11/05 06:40:50;;;;;;;2.17;1.95;;;15.40;65.10;;;;;;5085748;28;20012;-70
2022/11/05 06:43:15;;;;;;;2.20;2.00;;;15.40;65.10;;;;;;5085694;28;20027;-70
2022/11/05 06:45:41;;;;;;;2.13;1.88;;;15.40;65.10;;;;;;5085693;28;20013;-70
2022/11/05 06:48:08;;;;;;;1.88;1.77;;;15.40;65.00;;;;;;5085593;28;20105;-70
2022/11/05 06:50:34;;;;;;;2.38;2.15;;;15.40;65.00;;;;;;5085533;28;20058;-70
2022/11/05 06:53:02;;;;;;;2.30;2.05;;;15.40;65.00;;;;;;5085513;28;20020;-70
2022/11/05 06:55:29;;;;;;;2.75;2.20;;;15.40;65.10;;;;;;5085445;28;20393;-70
2022/11/05 06:57:56;;;;;;;2.35;2.15;;;15.40;65.10;;;;;;5084326;28;20031;-70
2022/11/05 07:00:23;;;;;;;2.45;2.00;;;15.40;65.00;;;;;;5085373;28;20017;-70
2022/11/05 07:02:48;;;;;;;2.53;2.22;;;15.50;65.00;;;;;;5085334;28;20020;-70
2022/11/05 07:05:15;;;;;;;3.08;2.35;;;15.40;65.00;;;;;;5085263;28;20119;-70
2022/11/05 07:07:42;;;;;;;1.88;1.73;;;15.40;65.00;;;;;;5085237;28;20028;-70
2022/11/05 07:10:11;;;;;;;3.17;2.63;;;15.40;65.10;;;;;;5084019;28;20017;-70
2022/11/05 07:12:37;;;;;;;2.63;2.33;;;15.40;65.00;;;;;;5085107;28;20216;-70
2022/11/05 07:15:04;;;;;;;2.47;2.05;;;15.50;65.10;;;;;;5085040;28;20021;-70
2022/11/05 07:17:30;;;;;;;2.50;2.30;;;15.40;65.60;;;;;;5084959;28;20335;-70
2022/11/05 07:19:55;;;;;;;2.92;2.45;;;15.40;64.90;;;;;;5084901;28;20020;-70
2022/11/05 07:22:21;;;;;;;2.05;1.83;;;15.40;65.00;;;;;;5084872;28;20309;-70
2022/11/05 07:24:48;;;;;;;2.50;2.15;;;15.40;65.00;;;;;;5084824;28;20024;-70
2022/11/05 07:27:14;;;;;;;3.03;2.60;;;15.50;65.00;;;;;;5084416;28;20027;-70
2022/11/05 07:29:40;;;;;;;2.30;2.10;;;15.40;65.00;;;;;;5084610;28;20037;-69
2022/11/05 07:32:06;;;;;;;2.35;2.15;;;15.50;65.10;;;;;;5084701;28;20181;-70
2022/11/05 07:34:33;;;;;;;2.30;2.08;;;15.40;65.00;;;;;;5084553;28;20090;-71
2022/11/05 07:36:59;;;;;;;2.42;2.22;;;15.50;65.00;;;;;;5084531;28;20021;-71
2022/11/05 07:39:25;;;;;;;2.65;2.17;;;15.40;64.90;;;;;;5084592;28;20212;-71
2022/11/05 07:41:56;;;;;;;2.35;1.90;;;15.50;64.90;;;;;;5084549;28;20016;-71
2022/11/05 07:44:22;;;;;;;2.20;1.80;;;15.40;64.90;;;;;;5083349;28;20016;-71
2022/11/05 07:46:49;;;;;;;2.17;1.98;;;15.40;64.90;;;;;;5084461;28;20025;-72
2022/11/05 07:49:15;;;;;;;1.90;1.80;;;15.50;64.90;;;;;;5084365;28;20020;-71
2022/11/05 07:51:41;;;;;;;2.17;1.98;;;15.50;64.90;;;;;;5084386;28;20046;-71
2022/11/05 07:54:07;;;;;;;2.30;2.10;;;15.50;64.90;;;;;;5084305;28;20024;-71
2022/11/05 07:56:33;;;;;;;2.58;2.17;;;15.50;65.00;;;;;;5084146;28;20080;-70
2022/11/05 07:58:58;;;;;;;2.63;2.10;;;15.40;65.00;;;;;;5084205;28;20204;-70
2022/11/05 08:01:24;;;;;;;2.88;2.40;;;15.40;65.60;;;;;;5084179;28;20013;-70
2022/11/05 08:03:50;;;;;;;2.30;2.08;;;15.40;64.90;;;;;;5084111;28;20079;-70
2022/11/05 08:06:16;;;;;;;3.10;2.60;;;15.50;65.60;;;;;;5084034;28;20024;-70
2022/11/05 08:08:42;;;;;;;2.45;1.95;;;15.50;64.90;;;;;;5083794;28;20224;-70
2022/11/05 08:11:09;;;;;;;2.28;2.08;;;15.50;64.90;;;;;;5082808;28;20050;-70
2022/11/05 08:13:36;;;;;;;2.15;1.70;;;15.50;64.90;;;;;;5083971;28;20036;-70
2022/11/05 08:16:02;;;;;;;2.08;1.88;;;15.50;64.90;;;;;;5083826;28;20317;-70
2022/11/05 08:18:33;;;;;;;2.28;2.08;;;15.50;64.90;;;;;;5083827;28;20016;-70
2022/11/05 08:21:03;;;;;;;2.70;2.10;;;15.50;64.90;;;;;;5083003;28;20048;-70
2022/11/05 08:23:30;;;;;;;1.90;1.70;;;15.50;64.80;;;;;;5083852;28;20016;-70
2022/11/05 08:25:57;;;;;;;2.13;1.83;;;15.50;64.80;;;;;;5083813;28;20017;-70
2022/11/05 08:28:24;;;;;;;2.28;2.08;;;15.40;64.80;;;;;;5083775;28;20028;-69
2022/11/05 08:30:54;;;;;;;2.45;1.90;;;15.50;64.90;;;;;;5083592;28;20085;-70
2022/11/05 08:33:21;;;;;;;2.35;2.00;;;15.50;64.90;;;;;;5082515;28;20032;-70
2022/11/05 08:35:47;;;;;;;2.78;2.47;;;15.50;64.90;;;;;;5082430;28;20247;-70
2022/11/05 08:38:15;;;;;;;2.10;1.90;;;15.50;64.90;;;;;;5083657;28;20182;-70
2022/11/05 08:40:44;;;;;;;2.05;1.83;;;15.40;64.90;;;;;;5083614;28;20313;-70
2022/11/05 08:43:12;;;;;;;2.40;2.20;;;15.50;64.90;;;;;;5083590;28;20020;-70
2022/11/05 08:45:38;;;;;;;2.75;2.40;;;15.50;65.00;;;;;;5083595;28;20027;-70
2022/11/05 08:48:10;;;;;;;1.83;1.73;;;15.40;64.90;;;;;;5083514;28;20305;-70
2022/11/05 08:50:37;;;;;;;2.08;1.70;;;15.50;64.90;;;;;;5083544;28;20304;-68
2022/11/05 08:53:04;;;;;;;2.88;2.40;;;15.40;64.90;;;;;;5083476;28;20016;-70
2022/11/05 08:55:30;;;;;;;2.63;2.25;;;15.50;64.90;;;;;;5083387;28;20013;-70
2022/11/05 08:58:01;;;;;;;2.25;2.05;;;15.40;64.80;;;;;;5083422;28;20017;-70
2022/11/05 09:00:28;;;;;;;2.58;2.38;;;15.40;64.90;;;;;;5083410;28;20082;-70
2022/11/05 09:02:57;;;;;;;2.63;2.20;;;15.50;64.90;;;;;;5083378;28;20017;-70
2022/11/05 09:05:22;;;;;;;3.20;2.40;;;15.40;64.90;;;;;;5083369;28;20019;-70
2022/11/05 09:07:48;;;;;;;2.55;2.22;;;15.50;65.00;;;;;;5083322;28;20217;-70
2022/11/05 09:10:14;;;;;;;1.92;1.73;;;15.50;65.10;;;;;;5083284;28;20016;-69
2022/11/05 09:12:40;;;;;;;2.58;2.05;;;15.40;64.90;;;;;;5083301;28;20105;-70
2022/11/05 09:15:06;;;;;;;2.42;2.22;;;15.50;65.00;;;;;;5083311;28;20076;-70
2022/11/05 09:17:32;;;;;;;3.70;2.10;;;15.40;64.90;;;;;;5083226;28;20047;-70
2022/11/05 09:19:57;;;;;;;1.88;1.70;;;15.40;64.90;;;;;;5083227;28;20021;-70
2022/11/05 09:22:23;;;;;;;2.50;2.25;;;15.40;64.90;;;;;;5086993;28;20360;-70
2022/11/05 09:24:49;;;;;;;2.65;2.10;;;15.50;64.90;;;;;;5087178;28;20114;-70
2022/11/05 09:27:15;;;;;;;2.10;1.90;;;15.50;64.90;;;;;;5087159;28;20028;-70
2022/11/05 09:29:41;;;;;;;2.28;2.05;;;15.40;64.90;;;;;;5086885;28;20332;-70
2022/11/05 09:32:07;;;;;;;2.63;2.20;;;15.40;64.90;;;;;;5087127;28;20238;-70
2022/11/05 09:34:33;;;;;;;2.33;2.00;;;15.40;64.90;;;;;;5087020;28;20024;-70
2022/11/05 09:36:59;;;;;;;2.17;1.98;;;15.40;64.90;;;;;;5086909;28;20029;-70
2022/11/05 09:39:26;;;;;;;1.98;1.80;;;15.40;64.90;;;;;;5086911;28;20040;-69
2022/11/05 09:41:54;;;;;;;2.10;1.85;;;15.40;64.90;;;;;;5086902;28;20024;-70
2022/11/05 09:44:27;;;;;;;2.10;1.90;;;15.50;64.90;;;;;;5086825;28;20216;-70
2022/11/05 09:47:04;;;;;;;2.33;2.13;;;15.40;64.90;;;;;;5086765;28;20020;-71
2022/11/05 09:49:34;;;;;;;2.20;1.88;;;15.40;64.90;;;;;;5086718;28;20012;-70
2022/11/05 09:52:01;;;;;;;2.63;2.15;;;15.40;64.90;;;;;;5086678;28;20084;-70
2022/11/05 09:54:32;;;;;;;2.00;1.77;;;15.50;64.90;;;;;;5086610;28;20235;-70
2022/11/05 09:57:00;;;;;;;1.75;1.65;;;15.40;64.90;;;;;;5086500;28;20024;-70
2022/11/05 09:59:48;;;;;;;2.40;1.77;;;15.40;64.90;;;;;;5086524;28;20012;-70
2022/11/05 10:02:29;;;;;;;2.22;2.03;;;15.40;64.90;;;;;;5086535;28;20012;-70
2022/11/05 10:04:59;;;;;;;2.80;2.33;;;15.40;64.90;;;;;;5086471;28;20017;-70
2022/11/05 10:07:28;;;;;;;2.17;1.98;;;15.40;64.90;;;;;;5086359;28;20043;-70
2022/11/05 10:09:59;;;;;;;;;;;15.40;64.90;;;;;;5086772;28;20302;-70
2022/11/05 10:12:29;;;;;;;2.08;1.88;;;15.40;64.90;;;;;;5086270;28;19907;-70
2022/11/05 10:15:10;;;;;;;2.20;2.00;;;15.40;64.90;;;;;;5086243;28;20083;-70
2022/11/05 10:17:39;;;;;;;2.70;2.50;;;15.40;64.80;;;;;;5086153;28;20216;-70
2022/11/05 10:20:30;;;;;;;;;;;15.50;64.90;;;;;;5086604;28;20012;-69
2022/11/05 10:23:00;;;;;;;2.13;1.90;;;15.50;64.90;;;;;;5086163;28;19904;-70
2022/11/05 10:25:34;;;;;;;2.47;2.15;;;15.50;64.90;;;;;;5086086;28;20356;-70
2022/11/05 10:28:03;;;;;;;2.08;1.88;;;15.40;64.80;;;;;;5086053;28;20020;-70
2022/11/05 10:30:29;;;;;;;3.13;2.40;;;15.40;64.80;;;;;;5085768;28;20056;-70
2022/11/05 10:32:58;;;;;;;2.28;2.08;;;15.50;64.90;;;;;;5085770;28;20036;-70
2022/11/05 10:35:28;;;;;;;2.17;1.98;;;15.50;64.90;;;;;;5085881;28;20355;-70
2022/11/05 10:37:55;;;;;;;2.10;1.90;;;15.40;64.80;;;;;;5085850;28;20032;-70
2022/11/05 10:40:30;;;;;;;2.25;2.05;;;15.50;64.80;;;;;;5085810;28;20324;-70
2022/11/05 10:42:59;;;;;;;1.83;1.60;;;15.50;64.80;;;;;;5085736;28;20023;-70
2022/11/05 10:45:38;;;;;;;2.72;1.92;;;15.40;64.80;;;;;;5084538;28;20020;-70
2022/11/05 10:48:31;;;;;;;2.22;2.03;;;15.50;64.90;;;;;;5085693;28;20021;-70
2022/11/05 10:50:58;;;;;;;2.35;2.08;;;15.50;64.80;;;;;;5085604;28;20013;-70
2022/11/05 10:53:31;;;;;;;1.90;1.80;;;15.50;64.80;;;;;;5085509;28;20019;-70
2022/11/05 10:55:57;;;;;;;2.38;2.17;;;15.50;64.80;;;;;;5085407;28;20024;-69
2022/11/05 10:58:28;;;;;;;2.55;1.88;;;15.50;64.80;;;;;;5085432;28;20020;-70
2022/11/05 11:00:54;;;;;;;2.25;1.98;;;15.50;64.70;;;;;;5085411;28;20017;-70
2022/11/05 11:03:41;;;;;;;2.97;2.55;;;15.50;65.30;;;;;;5085335;28;20026;-70
2022/11/05 11:06:28;;;;;;;2.58;2.10;;;15.50;64.80;;;;;;5085307;28;20025;-70
2022/11/05 11:09:04;;;;;;;2.00;1.80;;;15.50;64.80;;;;;;5085259;28;20208;-70
2022/11/05 11:11:39;;;;;;;1.83;1.63;;;15.50;64.70;;;;;;5085251;28;20316;-70
2022/11/05 11:14:18;;;;;;;2.15;1.95;;;15.50;64.80;;;;;;5085145;28;20046;-70
2022/11/05 11:16:45;;;;;;;;;;;15.50;64.70;;;;;;5085514;28;20080;-70
2022/11/05 11:19:20;;;;;;;1.60;1.50;;;15.50;64.70;;;;;;5085073;28;19923;-70
2022/11/05 11:22:03;;;;;;;2.47;2.08;;;15.50;64.60;;;;;;5084971;28;20019;-70
2022/11/05 11:24:44;;;;;;;1.88;1.77;;;15.50;64.70;;;;;;5085000;28;20047;-70
2022/11/05 11:27:26;;;;;;;2.20;2.00;;;15.50;64.70;;;;;;5084854;28;20228;-70
2022/11/05 11:30:00;;;;;;;2.05;1.75;;;15.50;64.70;;;;;;5084745;28;20052;-70
2022/11/05 11:32:47;;;;;;;2.13;1.92;;;15.50;64.70;;;;;;5084772;28;20024;-70
2022/11/05 11:35:24;;;;;;;1.95;1.75;;;15.50;64.70;;;;;;5084633;28;20092;-70
2022/11/05 11:37:55;;;;;;;1.80;1.60;;;15.50;64.60;;;;;;5084571;28;20339;-70
2022/11/05 11:40:29;;;;;;;2.10;1.80;;;15.50;64.70;;;;;;5084609;28;20016;-70
2022/11/05 11:42:57;;;;;;;1.95;1.70;;;15.50;64.60;;;;;;5084220;28;20084;-69
2022/11/05 11:45:28;;;;;;;;;;;15.50;64.80;;;;;;5084815;28;20236;-69
2022/11/05 11:47:56;;;;;;;1.73;1.52;;;15.50;64.80;;;;;;5084444;28;19900;-70
2022/11/05 11:50:35;;;;;;;2.97;2.57;;;15.50;64.60;;;;;;5083288;28;20039;-70
2022/11/05 11:53:19;;;;;;;2.13;1.92;;;15.50;64.60;;;;;;5084390;28;20181;-70
2022/11/05 11:56:16;;;;;;;1.70;1.60;;;15.60;64.70;;;;;;5084198;28;20017;-70
2022/11/05 11:58:48;;;;;;;1.60;1.50;;;15.50;64.70;;;;;;5083403;28;20039;-70
2022/11/05 12:01:41;;;;;;;2.10;1.90;;;15.50;64.70;;;;;;5084183;28;20200;-70
2022/11/05 12:04:13;;;;;;;2.03;1.65;;;15.50;64.70;;;;;;5084204;28;20020;-70
2022/11/05 12:06:51;;;;;;;1.77;1.63;;;15.50;64.60;;;;;;5084113;28;20029;-70
2022/11/05 12:09:23;;;;;;;1.60;1.50;;;15.50;64.60;;;;;;5084144;28;20307;-70
2022/11/05 12:12:01;;;;;;;2.80;1.75;;;15.60;64.60;;;;;;5084086;28;20087;-70
2022/11/05 12:14:45;;;;;;;2.40;2.17;;;15.60;64.50;;;;;;5084012;28;20023;-70
2022/11/05 12:17:48;;;;;;;1.92;1.50;;;15.60;64.50;;;;;;5083881;28;20182;-70
2022/11/05 12:20:39;;;;;;;2.17;1.67;;;15.60;64.40;;;;;;5083867;28;20028;-70
2022/11/05 12:23:30;;;;;;;2.15;1.95;;;15.60;64.40;;;;;;5083920;28;20036;-69
2022/11/05 12:26:06;;;;;;;2.30;2.10;;;15.60;64.40;;;;;;5052434;28;20101;-71
2022/11/05 12:28:50;;;;;;;2.05;1.83;;;15.60;64.50;;;;;;5083799;28;20070;-70
2022/11/05 12:31:42;;;;;;;2.20;2.00;;;15.50;64.60;;;;;;5083656;28;20071;-70
2022/11/05 12:34:29;;;;;;;2.10;1.90;;;15.60;64.80;;;;;;5083711;28;20020;-70
2022/11/05 12:37:18;;;;;;;1.70;1.42;;;15.50;64.70;;;;;;5083617;28;20211;-69
2022/11/05 12:40:05;;;;;;;2.22;1.80;;;15.50;64.80;;;;;;5083697;28;20123;-70
2022/11/05 12:43:00;;;;;;;1.77;1.65;;;15.50;64.70;;;;;;5083635;28;20051;-70
2022/11/05 12:45:41;;;;;;;1.85;1.70;;;15.50;64.80;;;;;;5083615;28;20078;-70
2022/11/05 12:48:22;;;;;;;1.60;1.50;;;15.50;64.80;;;;;;5083617;28;20020;-69
2022/11/05 12:50:58;;;;;;;1.75;1.63;;;15.50;64.80;;;;;;5083587;28;20025;-70
2022/11/05 12:53:45;;;;;;;1.98;1.75;;;15.50;64.80;;;;;;5083520;28;20016;-70
2022/11/05 12:56:43;;;;;;;2.33;2.13;;;15.50;64.70;;;;;;5082478;28;20023;-70
2022/11/05 12:59:22;;;;;;;2.10;1.90;;;15.50;64.80;;;;;;5071657;28;20062;-70
2022/11/05 13:02:01;;;;;;;1.73;1.63;;;15.50;64.80;;;;;;5083405;28;20017;-70
2022/11/05 13:04:53;;;;;;;1.95;1.73;;;15.50;64.80;;;;;;5083422;28;20020;-70
2022/11/05 13:07:31;;;;;;;2.00;1.80;;;15.50;64.80;;;;;;5052070;28;20052;-70
2022/11/05 13:10:24;;;;;;;1.75;1.60;;;15.50;64.80;;;;;;5083448;28;20016;-70
2022/11/05 13:13:05;;;;;;;1.67;1.58;;;15.50;64.80;;;;;;5083392;28;20043;-70
2022/11/05 13:15:37;;;;;;;1.80;1.42;;;15.50;64.80;;;;;;5083292;28;20016;-71
2022/11/05 13:18:50;;;;;;;1.48;1.38;;;15.50;64.80;;;;;;5083354;28;20315;-71
2022/11/05 13:21:18;;;;;;;2.10;1.90;;;15.50;64.80;;;;;;5080047;28;20078;-70
2022/11/05 13:23:46;;;;;;;;;;;15.50;64.80;;;;;;5083676;28;20075;-69
2022/11/05 13:26:25;;;;;;;1.83;1.67;;;15.50;64.80;;;;;;5083249;28;19900;-70
2022/11/05 13:29:26;;;;;;;;;;;15.50;64.80;;;;;;5083657;28;20025;-71
2022/11/05 13:32:01;;;;;;;1.80;1.70;;;15.50;64.80;;;;;;5021440;28;19945;-71
2022/11/05 13:34:27;;;;;;;1.63;1.50;;;15.50;64.70;;;;;;5074321;28;20263;-70
2022/11/05 13:39:50;;;;;;;1.90;1.70;;;15.50;64.80;;;;;;5083080;28;20016;-69
2022/11/05 13:42:25;;;;;;;1.80;1.70;;;15.50;64.80;;;;;;5083026;28;20365;-70
2022/11/05 13:45:10;;;;;;;2.05;1.85;;;15.50;64.80;;;;;;5083058;28;20024;-69
2022/11/05 13:48:13;;;;;;;2.33;2.13;;;15.50;64.80;;;;;;5083010;28;20025;-70
2022/11/05 13:50:47;;;;;;;2.08;1.75;;;15.50;64.80;;;;;;5082947;28;20021;-71
2022/11/05 13:53:22;;;;;;;1.90;1.77;;;15.50;64.90;;;;;;5082898;28;20024;-71
2022/11/05 13:56:31;;;;;;;2.05;1.73;;;15.50;64.80;;;;;;5082837;28;20025;-71
2022/11/05 13:59:18;;;;;;;1.90;1.80;;;15.50;64.80;;;;;;5082914;28;20017;-71
2022/11/05 14:01:59;;;;;;;2.55;2.05;;;15.50;64.80;;;;;;5082819;28;20013;-71